x

Muskegon, Mi (mkgm4) Weather Station

1:50pm - Tue 27th Sep 2016 All times are CDT. -5 hours from GMT.

  • Wind
    24mph, 28mph gusts
  • Air Temp 58°f
  • Sea Pressure 1006.7mb
  • Muskegon, Mi
  • Muskegon, Mi

More Historic Weather Station data

Upgrade to MSW Pro to gain access to the past 30 days of data for over 8000 Wavebouys and Weather Stations around the globe.

Join Pro

Comparision Forecast

View Surf forecast
   
Tue 09/27 1:50pm 24 28 mph 1006.7mb 58f
1:40pm 26 30 mph 1006.7mb 58f
1:30pm 25 28 mph 1006.5mb 58f
1:20pm 23 26 mph 1006.6mb 58f
1:10pm 24 32 mph 1006.7mb 58f
1:00pm 24 25 mph 1006.8mb 58f
12:50pm 22 26 mph 1006.8mb 58f
12:40pm 24 26 mph 1006.8mb 58f
12:30pm 24 30 mph 1006.8mb 58f
12:20pm 23 25 mph 1006.8mb 58f
12:10pm 24 28 mph 1006.8mb 58f
12:00pm 24 26 mph 1006.7mb 58f
11:50am 22 24 mph 1006.7mb 58f
11:40am 23 25 mph 1006.8mb 58f
11:30am 24 28 mph 1007mb 58f
11:20am 21 23 mph 1006.9mb 58f
11:10am 22 25 mph 1006.9mb 58f
11:00am 24 25 mph 1006.8mb 58f
10:50am 25 28 mph 1006.8mb 59f
10:40am 24 26 mph 1006.8mb 59f
10:30am 23 26 mph 1006.8mb 58f
10:20am 28 30 mph 1007mb 58f
10:10am 26 31 mph 1007.1mb 59f
10:00am 30 32 mph 1006.9mb 58f
9:50am 28 32 mph 1007mb 59f
9:40am 26 31 mph 1007mb 59f
9:30am 30 33 mph 1007.1mb 59f
9:20am 28 31 mph 1007mb 59f
9:10am 28 32 mph 1006.9mb 59f
9:00am 25 29 mph 1006.6mb 59f
8:50am 30 34 mph 1006.6mb 59f
8:40am 28 31 mph 1006.7mb 59f
8:30am 30 32 mph 1006.6mb 59f
8:20am 29 34 mph 1006.6mb 59f
8:10am 26 30 mph 1006.5mb 59f
8:00am 29 31 mph 1006.6mb 59f
7:50am 30 33 mph 1006.5mb 60f
7:40am 28 32 mph 1006.6mb 60f
7:30am 32 37 mph 1006.8mb 60f
7:20am 29 31 mph 1006.6mb 60f
7:10am 30 32 mph 1006.7mb 60f
7:00am 28 31 mph 1006.7mb 60f
6:50am 28 31 mph 1006.6mb 61f
6:40am 29 32 mph 1006.7mb 61f
6:30am 28 30 mph 1006.7mb 61f
6:20am 29 31 mph 1006.8mb 61f
6:10am 29 32 mph 1006.9mb 61f
6:00am 29 32 mph 1006.9mb 62f
5:50am 29 32 mph 1006.8mb 62f
5:40am 29 32 mph 1007mb 62f
5:30am 29 31 mph 1007mb 62f
5:20am 29 30 mph 1007mb 62f
5:10am 26 32 mph 1007.1mb 62f
5:00am 28 32 mph 1007.1mb 62f
4:50am 28 30 mph 1007.2mb 63f
4:40am 28 32 mph 1007.4mb 63f
4:30am 28 32 mph 1007.5mb 63f
4:20am 26 30 mph 1007.5mb 62f
4:10am 31 33 mph 1007.5mb 63f
4:00am 30 32 mph 1007.6mb 63f
3:50am 29 32 mph 1007.7mb 63f
3:40am 26 29 mph 1007.7mb 63f
3:30am 28 29 mph 1007.9mb 63f
3:20am 28 30 mph 1008mb 63f
3:10am 26 29 mph 1008.2mb 63f
3:00am 24 28 mph 1008.2mb 63f
2:50am 26 31 mph 1008.2mb 63f
2:40am 26 32 mph 1008.3mb 63f
2:30am 31 33 mph 1008.3mb 63f
2:20am 29 32 mph 1008.4mb 64f
2:10am 26 32 mph 1008.6mb 64f
2:00am 26 29 mph 1008.7mb 64f
1:50am 28 30 mph 1008.8mb 64f
1:40am 25 29 mph 1008.8mb 64f
1:30am 25 30 mph 1008.9mb 64f
1:20am 26 28 mph 1008.9mb 64f
1:10am 25 29 mph 1009mb 64f
1:00am 28 30 mph 1009.1mb 64f
12:50am 25 29 mph 1009.3mb 64f
12:40am 25 29 mph 1009.3mb 64f
12:30am 25 28 mph 1009.5mb 64f
12:20am 26 29 mph 1009.7mb 64f
12:10am 25 28 mph 1009.8mb 64f
12:00am 25 28 mph 1010mb 64f
Mon 09/26 11:50pm 28 30 mph 1010.1mb 64f
11:40pm 28 32 mph 1010.4mb 64f
11:30pm 23 28 mph 1010.4mb 64f
11:20pm 30 32 mph 1010.6mb 64f
11:10pm 26 31 mph 1010.6mb 64f
11:00pm 29 32 mph 1010.7mb 64f
10:50pm 28 33 mph 1011mb 64f
10:40pm 31 37 mph 1011mb 64f
10:30pm 30 32 mph 1011.1mb 64f
10:20pm 31 37 mph 1011.2mb 64f
10:10pm 31 34 mph 1011.3mb 64f
10:00pm 32 34 mph 1011.3mb 64f
9:50pm 30 34 mph 1011.3mb 64f
9:40pm 28 31 mph 1011.4mb 65f
9:30pm 32 37 mph 1011.4mb 65f
9:20pm 31 33 mph 1011.4mb 65f
9:10pm 29 31 mph 1011.4mb 65f
9:00pm 26 30 mph 1011.5mb 65f
8:50pm 28 31 mph 1011.6mb 65f
8:40pm 25 31 mph 1011.5mb 65f
8:30pm 31 33 mph 1011.5mb 65f
8:20pm 29 31 mph 1011.5mb 65f
8:10pm 26 32 mph 1011.4mb 65f
8:00pm 30 36 mph 1011.4mb 65f
7:50pm 26 29 mph 1011.4mb 65f
7:40pm 24 29 mph 1011.5mb 64f
7:30pm 18 24 mph 1011.5mb 63f
7:20pm 18 28 mph 1011.6mb 62f
7:10pm 31 39 mph 1012.4mb 60f
7:00pm 29 32 mph 1011.3mb 65f
6:50pm 28 31 mph 1011.2mb 65f
6:40pm 28 31 mph 1011.2mb 65f
6:30pm 28 33 mph 1011.4mb 65f
6:20pm 26 30 mph 1011.4mb 65f
6:10pm 30 32 mph 1011.5mb 65f
6:00pm 25 34 mph 1011.5mb 65f
5:50pm 29 33 mph 1011.5mb 65f
5:40pm 28 31 mph 1011.5mb 65f
5:30pm 25 29 mph 1011.5mb 64f
5:20pm 26 30 mph 1011.6mb 65f
5:10pm 30 32 mph 1011.6mb 64f
5:00pm 30 34 mph 1011.6mb 64f
4:50pm 30 33 mph 1011.7mb 64f
4:40pm 30 32 mph 1011.8mb 64f
4:30pm 29 31 mph 1011.9mb 64f
4:20pm 30 36 mph 1011.8mb 64f
4:10pm 26 32 mph 1011.9mb 64f
4:00pm 30 32 mph 1011.9mb 64f
3:50pm 32 36 mph 1011.8mb 64f
3:40pm 26 29 mph 1011.7mb 64f
3:30pm 26 29 mph 1011.7mb 64f
3:20pm 24 28 mph 1011.9mb 64f
3:10pm 29 33 mph 1011.9mb 64f
3:00pm 31 36 mph 1011.7mb 64f
2:50pm 30 36 mph 1011.7mb 64f
2:40pm 31 34 mph 1011.7mb 64f
2:30pm 29 32 mph 1011.6mb 64f
2:20pm 28 31 mph 1011.7mb 63f
2:10pm 30 36 mph 1011.7mb 64f
2:00pm 30 33 mph 1011.7mb 64f
1:50pm 29 30 mph 1011.9mb 63f
1:40pm 30 33 mph 1012mb 64f
1:30pm 31 36 mph 1012.2mb 63f
1:20pm 29 32 mph 1012.3mb 63f
1:10pm 26 32 mph 1012.3mb 63f
1:00pm 25 29 mph 1012.5mb 63f
12:50pm 28 30 mph 1012.5mb 63f
12:40pm 25 29 mph 1012.7mb 62f
12:30pm 29 33 mph 1012.7mb 62f
12:20pm 28 32 mph 1012.8mb 62f
12:10pm 25 31 mph 1012.8mb 62f
12:00pm 26 29 mph 1012.9mb 62f
11:50am 26 30 mph 1012.9mb 62f
11:40am 28 31 mph 1013.1mb 62f
11:30am 29 30 mph 1013.1mb 62f
11:20am 25 30 mph 1013.3mb 62f
11:10am 29 34 mph 1013.3mb 62f
11:00am 29 33 mph 1013.3mb 62f
10:50am 33 37 mph 1013.3mb 62f
10:40am 30 32 mph 1013.4mb 61f
10:30am 28 30 mph 1013.3mb 62f
10:20am 26 29 mph 1013.1mb 62f
10:10am 30 34 mph 1013mb 62f
10:00am 25 30 mph 1013mb 62f
9:50am 32 34 mph 1013mb 62f
9:40am 29 32 mph 1013.1mb 62f
9:30am 31 36 mph 1012.9mb 62f
9:20am 28 31 mph 1012.9mb 62f
9:10am 31 34 mph 1013mb 62f
9:00am 29 32 mph 1012.8mb 63f
8:50am 29 33 mph 1012.9mb 62f
8:40am 29 32 mph 1012.9mb 62f
8:30am 32 37 mph 1012.8mb 62f
8:20am 29 33 mph 1012.9mb 62f
8:10am 30 33 mph 1012.9mb 63f
8:00am 31 37 mph 1012.9mb 62f
7:50am 30 33 mph 1013.1mb 63f
7:40am 30 34 mph 1013.1mb 63f
7:30am 30 39 mph 1013.3mb 63f
7:20am 29 34 mph 1013.3mb 63f
7:10am 30 34 mph 1013.2mb 63f
7:00am 29 32 mph 1013mb 63f
6:50am 28 32 mph 1013mb 63f
6:40am 29 34 mph 1012.8mb 63f
6:30am 28 31 mph 1012.8mb 63f
6:20am 28 31 mph 1012.8mb 63f
6:10am 28 33 mph 1012.9mb 63f
6:00am 31 36 mph 1012.8mb 63f
5:50am 28 32 mph 1012.7mb 64f
5:40am 28 31 mph 1012.6mb 64f
5:30am 29 32 mph 1013.1mb 64f
5:20am 29 31 mph 1012.4mb 64f
5:10am 25 29 mph 1012.5mb 64f
5:00am 25 30 mph 1012.4mb 64f
4:50am 24 26 mph 1012.3mb 64f
4:40am 26 29 mph 1012.4mb 64f
4:30am 25 28 mph 1012.3mb 64f
4:20am 29 32 mph 1012.3mb 64f
4:10am 29 31 mph 1012.1mb 65f
4:00am 25 29 mph 1012mb 65f
3:50am 24 26 mph 1012.2mb 65f
3:40am 24 28 mph 1012.2mb 65f
3:30am 22 24 mph 1012.1mb 65f
3:20am 23 25 mph 1012.2mb 65f
3:10am 22 24 mph 1012.4mb 65f
3:00am 23 26 mph 1012.3mb 65f
2:50am 22 28 mph 1012.2mb 65f
2:40am 23 25 mph 1012.3mb 65f
2:30am 22 23 mph 1012.4mb 65f
2:20am 20 22 mph 1012.6mb 65f
2:10am 21 23 mph 1012.5mb 65f
2:00am 22 24 mph 1012.3mb 66f
1:50am 20 21 mph 1012.3mb 67f
1:40am 22 23 mph 1012.2mb 67f
1:30am 25 26 mph 1012.3mb 67f
1:20am 22 25 mph 1012.3mb 67f
1:10am 22 24 mph 1012.4mb 67f
1:00am 22 24 mph 1012.3mb 67f
12:50am 21 24 mph 1012.4mb 68f
12:40am 25 26 mph 1012.5mb 68f
12:30am 26 30 mph 1012.4mb 69f
12:20am 24 29 mph 1012.4mb 68f
12:10am 25 28 mph 1012.2mb 69f
12:00am 25 28 mph 1011.9mb 69f
Sun 09/25 11:50pm 18 21 mph 1011.8mb 69f
11:40pm 20 21 mph 1011.8mb 69f
11:30pm 22 25 mph 1011.8mb 69f
11:20pm 24 30 mph 1011.8mb 69f
11:10pm 26 30 mph 1011.2mb 69f
11:00pm 26 31 mph 1010.8mb 69f
10:50pm 22 25 mph 1010.5mb 70f
10:40pm 21 25 mph 1010.7mb 70f
10:30pm 21 24 mph 1010.7mb 70f
10:20pm 24 29 mph 1010.8mb 70f
10:10pm 23 26 mph 1011.2mb 70f
10:00pm 17 22 mph 1011.3mb 69f
9:50pm 23 26 mph 1011.4mb 69f
9:40pm 23 25 mph 1011.4mb 69f
9:30pm 22 26 mph 1011.7mb 69f
9:20pm 23 25 mph 1012mb 69f
9:10pm 22 26 mph 1012.4mb 69f
9:00pm 20 23 mph 1012.2mb 70f
8:50pm 21 24 mph 1012.4mb 70f
8:40pm 17 20 mph 1012.7mb 69f
8:30pm 15 16 mph 1012.9mb 68f
8:20pm 13 16 mph 1013mb 68f
8:10pm 10 15 mph 1012.9mb 69f
8:00pm 10 14 mph 1012.6mb 70f
7:50pm 11 16 mph 1012.4mb 70f
7:40pm 14 21 mph 1012.7mb 71f
7:30pm 16 21 mph 1012.5mb 71f
7:20pm 17 28 mph 1012.6mb 72f
7:10pm 16 21 mph 1012.6mb 73f
7:00pm 15 20 mph 1012.8mb 73f
6:50pm 15 23 mph 1012.8mb 73f
6:40pm 11 18 mph 1012.9mb 73f
6:30pm 11 15 mph 1012.8mb 73f
6:20pm 13 20 mph 1012.7mb 73f
6:10pm 14 18 mph 1012.9mb 74f
6:00pm 14 17 mph 1012.9mb 74f
5:50pm 7 10 mph 1013.3mb 74f
5:40pm 10 14 mph 1013.3mb 75f
5:30pm 9 15 mph 1013.5mb 75f
5:20pm 13 18 mph 1013.4mb 76f
5:10pm 7 10 mph 1013.5mb 76f
5:00pm 13 15 mph 1013.5mb 76f
4:50pm 14 18 mph 1013.6mb 77f
4:40pm 11 17 mph 1013.4mb 77f
4:30pm 11 16 mph 1013.4mb 77f
4:20pm 14 17 mph 1013.6mb 77f
4:10pm 13 18 mph 1013.9mb 77f
4:00pm 10 14 mph 1014.1mb 77f
3:50pm 10 16 mph 1014.2mb 77f
3:40pm 10 17 mph 1014.6mb 77f
3:30pm 14 17 mph 1014.9mb 77f
3:20pm 13 15 mph 1015.1mb 77f
3:10pm 11 17 mph 1015.2mb 77f
3:00pm 11 16 mph 1015.5mb 76f
2:50pm 10 13 mph 1015.8mb 76f
2:40pm 11 15 mph 1016.1mb 75f
2:30pm 10 13 mph 1016.4mb 75f
2:20pm 9 11 mph 1016.6mb 75f
2:10pm 10 15 mph 1016.8mb 74f
2:00pm 9 13 mph 1016.8mb 74f
1:50pm 6 9 mph 1017mb 75f
1:40pm 8 14 mph 1017.2mb 74f
1:30pm 9 11 mph 1017.4mb 74f
1:20pm 7 10 mph 1017.7mb 74f
1:10pm 8 13 mph 1017.9mb 74f
1:00pm 11 13 mph 1018.2mb 73f
12:50pm 7 10 mph 1018.3mb 73f
12:40pm 9 11 mph 1018.3mb 73f
12:30pm 11 15 mph 1018.4mb 72f
12:20pm 14 16 mph 1018.5mb 71f
12:10pm 8 13 mph 1019mb 71f
12:00pm 9 13 mph 1019.3mb 71f
11:50am 9 10 mph 1019.5mb 70f
11:40am 11 13 mph 1019.6mb 69f
11:30am 8 14 mph 1019.7mb 70f
11:20am 7 10 mph 1019.7mb 69f
11:10am 9 13 mph 1019.7mb 69f
11:00am 10 15 mph 1019.8mb 67f
10:50am 11 14 mph 1019.8mb 67f
10:40am 9 11 mph 1020.1mb 66f
10:30am 8 13 mph 1020.3mb 66f
10:20am 9 13 mph 1020.7mb 66f
10:10am 9 14 mph 1020.5mb 65f
10:00am 7 10 mph 1020.8mb 64f
9:50am 7 10 mph 1020.8mb 63f
9:40am 7 10 mph 1020.9mb 62f
9:30am 7 10 mph 1021.1mb 61f
9:20am 6 8 mph 1021.2mb 61f
9:10am 7 9 mph 1021.3mb 60f
9:00am 7 10 mph 1021.3mb 60f
8:50am 9 13 mph 1021.3mb 59f
8:40am 7 9 mph 1021.4mb 58f
8:30am 7 10 mph 1021.5mb 58f
8:20am 9 10 mph 1021.4mb 58f
8:10am 9 11 mph 1021.4mb 57f
8:00am 10 13 mph 1021.7mb 57f
7:50am 8 11 mph 1021.9mb 57f
7:40am 8 10 mph 1021.7mb 57f
7:30am 7 9 mph 1022.1mb 57f
7:20am 6 8 mph 1021.9mb 57f
7:10am 8 11 mph 1021.9mb 56f
7:00am 8 10 mph 1021.8mb 56f
6:50am 9 11 mph 1021.8mb 56f
6:40am 9 13 mph 1022.1mb 56f
6:30am 10 13 mph 1021.9mb 56f
6:20am 8 13 mph 1021.8mb 56f
6:10am 10 14 mph 1021.7mb 56f
6:00am 7 10 mph 1022.1mb 56f
5:50am 8 9 mph 1022.1mb 56f
5:40am 7 9 mph 1022.2mb 56f
5:30am 8 11 mph 1022.3mb 56f
5:20am 8 11 mph 1022.3mb 56f
5:10am 8 10 mph 1022.3mb 56f
5:00am 8 11 mph 1022.1mb 56f
4:50am 8 10 mph 1022.1mb 56f
4:40am 8 10 mph 1022.1mb 56f
4:30am 8 11 mph 1022.2mb 56f
4:20am 7 10 mph 1022.2mb 56f
4:10am 8 10 mph 1022.1mb 56f
4:00am 11 15 mph 1022.2mb 56f
3:50am 10 15 mph 1022.1mb 56f
3:40am 11 15 mph 1022mb 56f
3:30am 9 15 mph 1022.3mb 56f
3:20am 11 15 mph 1022.1mb 56f
3:10am 14 17 mph 1022.3mb 57f
3:00am 13 16 mph 1022.4mb 57f
2:50am 14 17 mph 1022.3mb 57f
2:40am 15 17 mph 1022.5mb 57f
2:30am 13 17 mph 1022.5mb 57f
2:20am 13 17 mph 1022.5mb 57f
2:10am 14 17 mph 1022.6mb 57f
2:00am 15 18 mph 1022.4mb 57f
1:50am 14 18 mph 1022.5mb 57f
1:40am 13 18 mph 1022.6mb 57f
1:30am 15 18 mph 1022.5mb 57f
1:20am 15 18 mph 1022.5mb 58f
1:10am 15 20 mph 1022.6mb 58f
1:00am 15 18 mph 1022.4mb 58f
12:50am 13 17 mph 1022.4mb 58f
12:40am 15 20 mph 1022.5mb 58f
12:30am 13 17 mph 1022.7mb 58f
12:20am 14 20 mph 1022.6mb 58f
12:10am 15 20 mph 1022.7mb 59f
12:00am 15 18 mph 1022.6mb 59f
Sat 09/24 11:50pm 14 17 mph 1022.7mb 59f
11:40pm 13 17 mph 1022.6mb 59f
11:30pm 15 18 mph 1022.6mb 60f
11:20pm 14 17 mph 1022.8mb 60f
11:10pm 13 16 mph 1022.9mb 60f
11:00pm 15 18 mph 1023.1mb 60f
10:50pm 13 15 mph 1022.9mb 60f
10:40pm 10 14 mph 1022.9mb 61f
10:30pm 10 15 mph 1023.1mb 62f
10:20pm 9 11 mph 1023mb 62f
10:10pm 10 13 mph 1023mb 62f
10:00pm 10 14 mph 1022.9mb 63f
9:50pm 9 11 mph 1023mb 63f
9:40pm 7 10 mph 1023.2mb 64f
9:30pm 9 11 mph 1023mb 64f
9:20pm 8 10 mph 1022.9mb 64f
9:10pm 9 13 mph 1022.6mb 64f
9:00pm 7 9 mph 1022.5mb 64f
8:50pm 10 14 mph 1022.5mb 64f
8:40pm 10 13 mph 1022.4mb 64f
8:30pm 9 11 mph 1022.4mb 64f
8:20pm 7 9 mph 1022.4mb 64f
8:10pm 6 8 mph 1022.4mb 64f
8:00pm 7 9 mph 1022.4mb 65f
7:50pm 8 11 mph 1022.2mb 65f
7:40pm 9 13 mph 1022.2mb 65f
7:30pm 8 10 mph 1022.2mb 65f
7:20pm 8 10 mph 1022.1mb 65f
7:10pm 8 10 mph 1021.9mb 66f
7:00pm 8 10 mph 1022.1mb 66f
6:50pm 7 10 mph 1022.1mb 66f
6:40pm 7 8 mph 1022.1mb 67f
6:30pm 9 13 mph 1022.1mb 67f
6:20pm 9 11 mph 1022mb 68f
6:10pm 9 10 mph 1022.1mb 68f
6:00pm 8 9 mph 1022.1mb 69f
5:50pm 6 10 mph 1022.2mb 69f
5:40pm 8 11 mph 1022.2mb 69f
5:30pm 8 13 mph 1022.3mb 69f
5:20pm 6 9 mph 1022.4mb 70f
5:10pm 9 11 mph 1022.6mb 70f
5:00pm 8 11 mph 1022.5mb 70f
4:50pm 10 13 mph 1022.6mb 70f
4:40pm 7 9 mph 1022.5mb 70f
4:30pm 6 9 mph 1022.4mb 71f
4:20pm 8 10 mph 1022.6mb 70f
4:10pm 8 9 mph 1022.8mb 70f
4:00pm 8 11 mph 1022.9mb 70f
3:50pm 7 9 mph 1022.9mb 70f
3:40pm 8 9 mph 1022.9mb 70f
3:30pm 7 11 mph 1022.7mb 69f
3:20pm 9 11 mph 1022.7mb 69f
3:10pm 10 11 mph 1022.7mb 70f
3:00pm 9 11 mph 1022.9mb 69f
2:50pm 10 13 mph 1023.1mb 68f
2:40pm 7 9 mph 1023.3mb 69f
2:30pm 10 11 mph 1023.5mb 68f
2:20pm 9 13 mph 1023.5mb 69f
2:10pm 5 8 mph 1023.5mb 68f
2:00pm 9 15 mph 1023.5mb 68f
1:50pm 9 13 mph 1023.8mb 67f
1:40pm 9 13 mph 1023.9mb 67f
1:30pm 10 13 mph 1024.1mb 67f
1:20pm 9 15 mph 1024.4mb 67f
1:10pm 13 16 mph 1024.7mb 66f
1:00pm 10 14 mph 1024.7mb 66f
12:50pm 11 16 mph 1024.8mb 66f
12:40pm 11 15 mph 1024.8mb 66f
12:30pm 11 15 mph 1024.8mb 65f
12:20pm 8 13 mph 1025mb 64f
12:10pm 8 14 mph 1024.9mb 66f
12:00pm 11 16 mph 1025.1mb 64f
11:50am 15 20 mph 1024.9mb 64f
11:40am 11 17 mph 1024.9mb 64f
11:30am 9 14 mph 1024.9mb 64f
11:20am 11 16 mph 1025.1mb 64f
11:10am 13 17 mph 1025.1mb 63f
11:00am 15 20 mph 1025.2mb 64f
10:50am 11 18 mph 1025mb 63f
10:40am 10 16 mph 1025.1mb 63f
10:30am 10 20 mph 1025.3mb 63f
10:20am 9 15 mph 1025.4mb 62f
10:10am 11 18 mph 1025.6mb 61f
10:00am 14 20 mph 1025.4mb 61f
9:50am 8 11 mph 1025.3mb 62f
9:40am 14 18 mph 1025.4mb 60f
9:30am 11 17 mph 1025.6mb 60f
9:20am 10 15 mph 1025.6mb 59f
9:10am 11 17 mph 1025.6mb 58f
9:00am 15 18 mph 1025.7mb 59f
8:50am 14 17 mph 1025.5mb 59f
8:40am 11 15 mph 1025.6mb 57f
8:30am 11 15 mph 1025.5mb 57f
8:20am 10 15 mph 1025.5mb 56f
8:10am 9 13 mph 1025.6mb 56f
8:00am 9 11 mph 1025.5mb 56f
7:50am 10 17 mph 1025.5mb 55f
7:40am 9 14 mph 1025.3mb 55f
7:30am 13 17 mph 1025.2mb 55f
7:20am 13 16 mph 1025.3mb 55f
7:10am 10 15 mph 1025.2mb 55f
7:00am 16 17 mph 1025.2mb 55f
6:50am 11 16 mph 1025.2mb 55f
6:40am 9 14 mph 1025.2mb 55f
6:30am 10 15 mph 1024.8mb 55f
6:20am 10 16 mph 1024.6mb 55f
6:10am 9 15 mph 1024.5mb 55f
6:00am 11 17 mph 1024.5mb 55f
5:50am 11 15 mph 1024.5mb 55f
5:40am 13 16 mph 1024.5mb 55f
5:30am 13 16 mph 1024.5mb 55f
5:20am 10 15 mph 1024.5mb 55f
5:10am 10 16 mph 1024.5mb 55f
5:00am 9 13 mph 1024.2mb 55f
4:50am 9 13 mph 1024.4mb 55f
4:40am 9 13 mph 1024.2mb 56f
4:30am 7 11 mph 1024.2mb 56f
4:20am 5 8 mph 1024.2mb 55f
4:10am 6 9 mph 1024.1mb 56f
4:00am 7 9 mph 1024mb 56f
3:50am 5 8 mph 1024mb 57f
3:40am 3 8 mph 1023.7mb 57f
3:30am 9 11 mph 1023.5mb 57f
3:20am 10 13 mph 1023.5mb 57f
3:10am 9 13 mph 1023.4mb 58f
3:00am 9 13 mph 1023.2mb 58f
2:50am 8 13 mph 1023.2mb 58f
2:40am 8 10 mph 1023.2mb 58f
2:30am 7 10 mph 1023.3mb 58f
2:20am 9 15 mph 1023.3mb 58f
2:10am 11 16 mph 1023.1mb 59f
2:00am 13 17 mph 1023.1mb 59f
1:50am 11 15 mph 1023.1mb 59f
1:40am 9 14 mph 1023.1mb 59f
1:30am 8 14 mph 1022.9mb 59f
1:20am 8 10 mph 1023mb 60f
1:10am 10 14 mph 1023mb 60f
1:00am 13 17 mph 1022.9mb 60f
12:50am 10 16 mph 1022.9mb 60f
12:40am 8 13 mph 1023.1mb 61f
12:30am 9 15 mph 1023.1mb 61f
12:20am 14 20 mph 1022.9mb 61f
12:10am 15 21 mph 1022.9mb 61f
12:00am 20 24 mph 1023.1mb 62f
Fri 09/23 11:50pm 16 23 mph 1023.1mb 62f
11:40pm 11 17 mph 1023.3mb 62f
11:30pm 10 14 mph 1023.2mb 62f
11:20pm 8 13 mph 1023.2mb 62f
11:10pm 13 17 mph 1023.4mb 62f
11:00pm 13 17 mph 1023.2mb 62f
10:50pm 11 16 mph 1023.2mb 63f
10:40pm 7 14 mph 1023mb 63f
10:30pm 8 10 mph 1023mb 63f
10:20pm 9 13 mph 1022.9mb 63f
10:10pm 8 13 mph 1022.7mb 63f
10:00pm 11 15 mph 1022.6mb 63f
9:50pm 9 14 mph 1022.6mb 63f
9:40pm 9 13 mph 1022.5mb 63f
9:30pm 9 11 mph 1022.6mb 63f
9:20pm 9 11 mph 1022.4mb 63f
9:10pm 10 13 mph 1022.3mb 63f
9:00pm 11 16 mph 1022.1mb 63f
8:50pm 13 17 mph 1022mb 63f
8:40pm 11 16 mph 1022mb 63f
8:30pm 9 14 mph 1022mb 63f
8:20pm 11 16 mph 1022mb 63f
8:10pm 10 15 mph 1021.8mb 63f
8:00pm 11 16 mph 1021.5mb 64f